sensor_id;sensor_type;location;lat;lon;timestamp;P1;durP1;ratioP1;P2;durP2;ratioP2
20945;SDS011;10632;51.276;7.116;2022-08-21T00:02:17;5.90;;;1.92;;
20945;SDS011;10632;51.276;7.116;2022-08-21T00:04:46;3.85;;;2.10;;
20945;SDS011;10632;51.276;7.116;2022-08-21T00:07:15;7.40;;;2.30;;
20945;SDS011;10632;51.276;7.116;2022-08-21T00:09:43;4.85;;;2.08;;
20945;SDS011;10632;51.276;7.116;2022-08-21T00:12:11;3.05;;;1.90;;
20945;SDS011;10632;51.276;7.116;2022-08-21T00:14:38;5.43;;;2.20;;
20945;SDS011;10632;51.276;7.116;2022-08-21T00:17:06;5.38;;;2.25;;
20945;SDS011;10632;51.276;7.116;2022-08-21T00:19:33;6.15;;;2.08;;
20945;SDS011;10632;51.276;7.116;2022-08-21T00:22:00;5.50;;;2.10;;
20945;SDS011;10632;51.276;7.116;2022-08-21T00:24:28;4.93;;;1.88;;
20945;SDS011;10632;51.276;7.116;2022-08-21T00:26:55;3.55;;;1.77;;
20945;SDS011;10632;51.276;7.116;2022-08-21T00:29:23;4.72;;;1.95;;
20945;SDS011;10632;51.276;7.116;2022-08-21T00:31:51;7.82;;;2.22;;
20945;SDS011;10632;51.276;7.116;2022-08-21T00:34:18;8.70;;;2.00;;
20945;SDS011;10632;51.276;7.116;2022-08-21T00:36:45;3.63;;;1.65;;
20945;SDS011;10632;51.276;7.116;2022-08-21T00:39:12;6.65;;;2.20;;
20945;SDS011;10632;51.276;7.116;2022-08-21T00:41:42;8.00;;;2.25;;
20945;SDS011;10632;51.276;7.116;2022-08-21T00:44:13;7.22;;;2.50;;
20945;SDS011;10632;51.276;7.116;2022-08-21T00:46:41;8.65;;;3.17;;
20945;SDS011;10632;51.276;7.116;2022-08-21T00:49:10;11.15;;;3.70;;
20945;SDS011;10632;51.276;7.116;2022-08-21T00:51:39;13.43;;;3.65;;
20945;SDS011;10632;51.276;7.116;2022-08-21T00:54:10;9.05;;;3.60;;
20945;SDS011;10632;51.276;7.116;2022-08-21T00:56:38;10.57;;;4.22;;
20945;SDS011;10632;51.276;7.116;2022-08-21T00:59:06;11.82;;;4.20;;
20945;SDS011;10632;51.276;7.116;2022-08-21T01:01:34;12.77;;;4.40;;
20945;SDS011;10632;51.276;7.116;2022-08-21T01:04:02;9.80;;;4.68;;
20945;SDS011;10632;51.276;7.116;2022-08-21T01:06:29;11.95;;;4.60;;
20945;SDS011;10632;51.276;7.116;2022-08-21T01:08:56;12.40;;;4.43;;
20945;SDS011;10632;51.276;7.116;2022-08-21T01:11:23;12.95;;;4.65;;
20945;SDS011;10632;51.276;7.116;2022-08-21T01:13:50;14.13;;;5.18;;
20945;SDS011;10632;51.276;7.116;2022-08-21T01:16:20;14.98;;;4.90;;
20945;SDS011;10632;51.276;7.116;2022-08-21T01:18:48;11.77;;;4.38;;
20945;SDS011;10632;51.276;7.116;2022-08-21T01:21:18;10.02;;;4.45;;
20945;SDS011;10632;51.276;7.116;2022-08-21T01:23:49;12.00;;;4.45;;
20945;SDS011;10632;51.276;7.116;2022-08-21T01:26:18;11.73;;;4.80;;
20945;SDS011;10632;51.276;7.116;2022-08-21T01:28:49;9.25;;;4.20;;
20945;SDS011;10632;51.276;7.116;2022-08-21T01:31:25;12.57;;;4.45;;
20945;SDS011;10632;51.276;7.116;2022-08-21T01:33:53;10.65;;;4.28;;
20945;SDS011;10632;51.276;7.116;2022-08-21T01:36:23;11.43;;;4.22;;
20945;SDS011;10632;51.276;7.116;2022-08-21T01:38:51;9.93;;;4.85;;
20945;SDS011;10632;51.276;7.116;2022-08-21T01:41:18;10.93;;;4.10;;
20945;SDS011;10632;51.276;7.116;2022-08-21T01:43:45;13.02;;;3.92;;
20945;SDS011;10632;51.276;7.116;2022-08-21T01:46:12;10.38;;;4.07;;
20945;SDS011;10632;51.276;7.116;2022-08-21T01:48:43;9.13;;;3.65;;
20945;SDS011;10632;51.276;7.116;2022-08-21T01:51:10;9.20;;;3.85;;
20945;SDS011;10632;51.276;7.116;2022-08-21T01:53:39;11.50;;;3.47;;
20945;SDS011;10632;51.276;7.116;2022-08-21T01:56:07;8.38;;;3.42;;
20945;SDS011;10632;51.276;7.116;2022-08-21T01:58:39;9.75;;;3.60;;
20945;SDS011;10632;51.276;7.116;2022-08-21T02:01:07;8.82;;;3.60;;
20945;SDS011;10632;51.276;7.116;2022-08-21T02:03:35;17.08;;;3.97;;
20945;SDS011;10632;51.276;7.116;2022-08-21T02:06:05;9.70;;;3.75;;
20945;SDS011;10632;51.276;7.116;2022-08-21T02:08:33;11.77;;;4.05;;
20945;SDS011;10632;51.276;7.116;2022-08-21T02:11:04;12.27;;;4.50;;
20945;SDS011;10632;51.276;7.116;2022-08-21T02:13:31;14.05;;;4.47;;
20945;SDS011;10632;51.276;7.116;2022-08-21T02:16:01;10.52;;;3.88;;
20945;SDS011;10632;51.276;7.116;2022-08-21T02:18:28;11.68;;;4.20;;
20945;SDS011;10632;51.276;7.116;2022-08-21T02:20:56;9.68;;;3.97;;
20945;SDS011;10632;51.276;7.116;2022-08-21T02:23:23;9.95;;;3.47;;
20945;SDS011;10632;51.276;7.116;2022-08-21T02:25:50;10.55;;;3.70;;
20945;SDS011;10632;51.276;7.116;2022-08-21T02:28:18;9.70;;;3.38;;
20945;SDS011;10632;51.276;7.116;2022-08-21T02:30:47;10.27;;;3.38;;
20945;SDS011;10632;51.276;7.116;2022-08-21T02:33:15;9.52;;;3.47;;
20945;SDS011;10632;51.276;7.116;2022-08-21T02:35:43;10.48;;;3.70;;
20945;SDS011;10632;51.276;7.116;2022-08-21T02:38:13;8.07;;;3.13;;
20945;SDS011;10632;51.276;7.116;2022-08-21T02:40:43;11.25;;;3.17;;
20945;SDS011;10632;51.276;7.116;2022-08-21T02:43:11;8.10;;;3.83;;
20945;SDS011;10632;51.276;7.116;2022-08-21T02:45:40;8.43;;;3.83;;
20945;SDS011;10632;51.276;7.116;2022-08-21T02:48:08;11.13;;;3.97;;
20945;SDS011;10632;51.276;7.116;2022-08-21T02:50:38;10.13;;;3.67;;
20945;SDS011;10632;51.276;7.116;2022-08-21T02:53:08;9.55;;;3.78;;
20945;SDS011;10632;51.276;7.116;2022-08-21T02:55:38;9.40;;;4.07;;
20945;SDS011;10632;51.276;7.116;2022-08-21T02:58:06;10.02;;;3.80;;
20945;SDS011;10632;51.276;7.116;2022-08-21T03:00:34;10.13;;;3.65;;
20945;SDS011;10632;51.276;7.116;2022-08-21T03:03:08;8.27;;;3.88;;
20945;SDS011;10632;51.276;7.116;2022-08-21T03:05:36;8.70;;;3.70;;
20945;SDS011;10632;51.276;7.116;2022-08-21T03:08:07;8.35;;;3.67;;
20945;SDS011;10632;51.276;7.116;2022-08-21T03:10:37;10.57;;;3.13;;
20945;SDS011;10632;51.276;7.116;2022-08-21T03:13:05;9.57;;;3.30;;
20945;SDS011;10632;51.276;7.116;2022-08-21T03:15:32;7.30;;;3.20;;
20945;SDS011;10632;51.276;7.116;2022-08-21T03:18:00;8.15;;;3.03;;
20945;SDS011;10632;51.276;7.116;2022-08-21T03:20:30;5.57;;;2.80;;
20945;SDS011;10632;51.276;7.116;2022-08-21T03:22:57;9.77;;;3.25;;
20945;SDS011;10632;51.276;7.116;2022-08-21T03:25:25;10.85;;;3.45;;
20945;SDS011;10632;51.276;7.116;2022-08-21T03:27:54;7.43;;;2.78;;
20945;SDS011;10632;51.276;7.116;2022-08-21T03:30:21;6.15;;;2.63;;
20945;SDS011;10632;51.276;7.116;2022-08-21T03:32:48;7.53;;;3.15;;
20945;SDS011;10632;51.276;7.116;2022-08-21T03:35:15;12.73;;;3.60;;
20945;SDS011;10632;51.276;7.116;2022-08-21T03:37:45;9.00;;;3.47;;
20945;SDS011;10632;51.276;7.116;2022-08-21T03:40:13;10.75;;;3.55;;
20945;SDS011;10632;51.276;7.116;2022-08-21T03:42:42;8.80;;;3.95;;
20945;SDS011;10632;51.276;7.116;2022-08-21T03:45:12;8.40;;;4.30;;
20945;SDS011;10632;51.276;7.116;2022-08-21T03:47:49;12.63;;;4.30;;
20945;SDS011;10632;51.276;7.116;2022-08-21T03:50:17;9.52;;;3.75;;
20945;SDS011;10632;51.276;7.116;2022-08-21T03:52:46;11.13;;;3.60;;
20945;SDS011;10632;51.276;7.116;2022-08-21T03:55:13;10.15;;;3.42;;
20945;SDS011;10632;51.276;7.116;2022-08-21T03:57:40;9.40;;;3.38;;
20945;SDS011;10632;51.276;7.116;2022-08-21T04:00:08;9.27;;;3.53;;
20945;SDS011;10632;51.276;7.116;2022-08-21T04:02:37;9.85;;;4.30;;
20945;SDS011;10632;51.276;7.116;2022-08-21T04:05:05;7.55;;;3.58;;
20945;SDS011;10632;51.276;7.116;2022-08-21T04:07:33;9.65;;;3.30;;
20945;SDS011;10632;51.276;7.116;2022-08-21T04:10:02;10.15;;;3.50;;
20945;SDS011;10632;51.276;7.116;2022-08-21T04:12:29;7.72;;;3.50;;
20945;SDS011;10632;51.276;7.116;2022-08-21T04:14:56;9.85;;;3.45;;
20945;SDS011;10632;51.276;7.116;2022-08-21T04:17:23;10.48;;;3.53;;
20945;SDS011;10632;51.276;7.116;2022-08-21T04:19:51;8.73;;;3.55;;
20945;SDS011;10632;51.276;7.116;2022-08-21T04:22:19;12.25;;;3.30;;
20945;SDS011;10632;51.276;7.116;2022-08-21T04:24:46;9.00;;;3.50;;
20945;SDS011;10632;51.276;7.116;2022-08-21T04:27:14;7.50;;;3.58;;
20945;SDS011;10632;51.276;7.116;2022-08-21T04:29:41;8.50;;;3.50;;
20945;SDS011;10632;51.276;7.116;2022-08-21T04:32:08;11.65;;;4.57;;
20945;SDS011;10632;51.276;7.116;2022-08-21T04:34:35;10.25;;;4.28;;
20945;SDS011;10632;51.276;7.116;2022-08-21T04:37:02;10.45;;;4.18;;
20945;SDS011;10632;51.276;7.116;2022-08-21T04:39:29;9.15;;;4.15;;
20945;SDS011;10632;51.276;7.116;2022-08-21T04:41:55;8.77;;;4.18;;
20945;SDS011;10632;51.276;7.116;2022-08-21T04:44:24;9.05;;;4.53;;
20945;SDS011;10632;51.276;7.116;2022-08-21T04:46:51;9.80;;;4.28;;
20945;SDS011;10632;51.276;7.116;2022-08-21T04:49:18;12.52;;;4.47;;
20945;SDS011;10632;51.276;7.116;2022-08-21T04:51:44;10.60;;;4.40;;
20945;SDS011;10632;51.276;7.116;2022-08-21T04:54:12;9.23;;;4.18;;
20945;SDS011;10632;51.276;7.116;2022-08-21T04:56:44;15.90;;;4.43;;
20945;SDS011;10632;51.276;7.116;2022-08-21T04:59:16;10.77;;;4.00;;
20945;SDS011;10632;51.276;7.116;2022-08-21T05:01:48;10.50;;;4.75;;
20945;SDS011;10632;51.276;7.116;2022-08-21T05:04:17;9.98;;;4.25;;
20945;SDS011;10632;51.276;7.116;2022-08-21T05:06:47;11.15;;;4.28;;
20945;SDS011;10632;51.276;7.116;2022-08-21T05:09:17;12.80;;;3.72;;
20945;SDS011;10632;51.276;7.116;2022-08-21T05:11:45;9.43;;;4.50;;
20945;SDS011;10632;51.276;7.116;2022-08-21T05:14:13;11.65;;;4.07;;
20945;SDS011;10632;51.276;7.116;2022-08-21T05:16:41;14.85;;;4.63;;
20945;SDS011;10632;51.276;7.116;2022-08-21T05:19:10;9.55;;;3.88;;
20945;SDS011;10632;51.276;7.116;2022-08-21T05:21:38;11.70;;;4.30;;
20945;SDS011;10632;51.276;7.116;2022-08-21T05:24:08;8.70;;;4.00;;
20945;SDS011;10632;51.276;7.116;2022-08-21T05:26:36;9.23;;;3.83;;
20945;SDS011;10632;51.276;7.116;2022-08-21T05:29:03;9.57;;;4.07;;
20945;SDS011;10632;51.276;7.116;2022-08-21T05:31:30;13.50;;;4.40;;
20945;SDS011;10632;51.276;7.116;2022-08-21T05:33:57;13.95;;;5.15;;
20945;SDS011;10632;51.276;7.116;2022-08-21T05:36:26;12.98;;;4.85;;
20945;SDS011;10632;51.276;7.116;2022-08-21T05:38:53;9.68;;;3.90;;
20945;SDS011;10632;51.276;7.116;2022-08-21T05:41:20;15.05;;;5.13;;
20945;SDS011;10632;51.276;7.116;2022-08-21T05:43:47;15.13;;;6.05;;
20945;SDS011;10632;51.276;7.116;2022-08-21T05:46:16;14.65;;;5.68;;
20945;SDS011;10632;51.276;7.116;2022-08-21T05:48:43;17.73;;;6.68;;
20945;SDS011;10632;51.276;7.116;2022-08-21T05:51:10;26.50;;;6.65;;
20945;SDS011;10632;51.276;7.116;2022-08-21T05:53:40;8.38;;;4.70;;
20945;SDS011;10632;51.276;7.116;2022-08-21T05:56:09;11.30;;;5.60;;
20945;SDS011;10632;51.276;7.116;2022-08-21T05:58:36;22.90;;;7.20;;
20945;SDS011;10632;51.276;7.116;2022-08-21T06:01:03;18.33;;;6.65;;
20945;SDS011;10632;51.276;7.116;2022-08-21T06:03:31;17.23;;;6.38;;
20945;SDS011;10632;51.276;7.116;2022-08-21T06:06:00;11.93;;;5.60;;
20945;SDS011;10632;51.276;7.116;2022-08-21T06:08:28;18.23;;;7.32;;
20945;SDS011;10632;51.276;7.116;2022-08-21T06:10:57;19.98;;;7.10;;
20945;SDS011;10632;51.276;7.116;2022-08-21T06:13:25;21.48;;;7.28;;
20945;SDS011;10632;51.276;7.116;2022-08-21T06:16:00;15.50;;;6.47;;
20945;SDS011;10632;51.276;7.116;2022-08-21T06:18:29;16.35;;;6.47;;
20945;SDS011;10632;51.276;7.116;2022-08-21T06:20:56;17.98;;;6.80;;
20945;SDS011;10632;51.276;7.116;2022-08-21T06:23:23;18.13;;;6.53;;
20945;SDS011;10632;51.276;7.116;2022-08-21T06:25:49;16.63;;;7.30;;
20945;SDS011;10632;51.276;7.116;2022-08-21T06:28:18;18.60;;;7.07;;
20945;SDS011;10632;51.276;7.116;2022-08-21T06:30:45;18.10;;;7.15;;
20945;SDS011;10632;51.276;7.116;2022-08-21T06:33:12;14.05;;;6.38;;
20945;SDS011;10632;51.276;7.116;2022-08-21T06:35:39;16.48;;;6.47;;
20945;SDS011;10632;51.276;7.116;2022-08-21T06:38:06;18.63;;;7.03;;
20945;SDS011;10632;51.276;7.116;2022-08-21T06:40:33;14.07;;;6.30;;
20945;SDS011;10632;51.276;7.116;2022-08-21T06:43:04;15.95;;;7.45;;
20945;SDS011;10632;51.276;7.116;2022-08-21T06:45:34;19.42;;;7.57;;
20945;SDS011;10632;51.276;7.116;2022-08-21T06:48:01;15.82;;;7.07;;
20945;SDS011;10632;51.276;7.116;2022-08-21T06:50:29;16.65;;;7.30;;
20945;SDS011;10632;51.276;7.116;2022-08-21T06:53:00;19.23;;;7.22;;
20945;SDS011;10632;51.276;7.116;2022-08-21T06:55:28;16.83;;;6.65;;
20945;SDS011;10632;51.276;7.116;2022-08-21T06:57:55;16.92;;;7.22;;
20945;SDS011;10632;51.276;7.116;2022-08-21T07:00:22;13.50;;;5.78;;
20945;SDS011;10632;51.276;7.116;2022-08-21T07:02:51;16.38;;;6.93;;
20945;SDS011;10632;51.276;7.116;2022-08-21T07:05:18;14.10;;;6.20;;
20945;SDS011;10632;51.276;7.116;2022-08-21T07:07:45;9.85;;;5.18;;
20945;SDS011;10632;51.276;7.116;2022-08-21T07:10:12;17.73;;;6.05;;
20945;SDS011;10632;51.276;7.116;2022-08-21T07:12:39;16.88;;;5.65;;
20945;SDS011;10632;51.276;7.116;2022-08-21T07:15:07;16.30;;;5.63;;
20945;SDS011;10632;51.276;7.116;2022-08-21T07:17:35;16.38;;;5.75;;
20945;SDS011;10632;51.276;7.116;2022-08-21T07:20:04;13.35;;;5.13;;
20945;SDS011;10632;51.276;7.116;2022-08-21T07:22:32;13.82;;;4.70;;
20945;SDS011;10632;51.276;7.116;2022-08-21T07:24:59;12.93;;;4.97;;
20945;SDS011;10632;51.276;7.116;2022-08-21T07:27:26;10.98;;;3.78;;
20945;SDS011;10632;51.276;7.116;2022-08-21T07:29:53;8.65;;;4.05;;
20945;SDS011;10632;51.276;7.116;2022-08-21T07:32:20;9.35;;;3.63;;
20945;SDS011;10632;51.276;7.116;2022-08-21T07:34:47;11.63;;;3.70;;
20945;SDS011;10632;51.276;7.116;2022-08-21T07:37:15;14.80;;;4.00;;
20945;SDS011;10632;51.276;7.116;2022-08-21T07:39:42;10.52;;;3.22;;
20945;SDS011;10632;51.276;7.116;2022-08-21T07:42:13;10.00;;;3.13;;
20945;SDS011;10632;51.276;7.116;2022-08-21T07:44:40;8.30;;;3.05;;
20945;SDS011;10632;51.276;7.116;2022-08-21T07:47:08;9.15;;;3.70;;
20945;SDS011;10632;51.276;7.116;2022-08-21T07:49:35;9.75;;;2.90;;
20945;SDS011;10632;51.276;7.116;2022-08-21T07:52:02;7.40;;;2.97;;
20945;SDS011;10632;51.276;7.116;2022-08-21T07:54:31;7.93;;;2.78;;
20945;SDS011;10632;51.276;7.116;2022-08-21T07:56:58;10.35;;;2.75;;
20945;SDS011;10632;51.276;7.116;2022-08-21T07:59:25;8.25;;;2.40;;
20945;SDS011;10632;51.276;7.116;2022-08-21T08:01:52;10.38;;;2.50;;
20945;SDS011;10632;51.276;7.116;2022-08-21T08:04:19;8.38;;;2.58;;
20945;SDS011;10632;51.276;7.116;2022-08-21T08:06:46;8.55;;;2.17;;
20945;SDS011;10632;51.276;7.116;2022-08-21T08:09:12;5.35;;;1.92;;
20945;SDS011;10632;51.276;7.116;2022-08-21T08:11:41;6.18;;;2.10;;
20945;SDS011;10632;51.276;7.116;2022-08-21T08:14:09;6.43;;;1.65;;
20945;SDS011;10632;51.276;7.116;2022-08-21T08:16:36;3.05;;;1.60;;
20945;SDS011;10632;51.276;7.116;2022-08-21T08:19:03;4.95;;;1.65;;
20945;SDS011;10632;51.276;7.116;2022-08-21T08:21:30;5.35;;;1.88;;
20945;SDS011;10632;51.276;7.116;2022-08-21T08:24:02;6.15;;;1.80;;
20945;SDS011;10632;51.276;7.116;2022-08-21T08:26:30;9.57;;;1.92;;
20945;SDS011;10632;51.276;7.116;2022-08-21T08:28:58;5.57;;;1.80;;
20945;SDS011;10632;51.276;7.116;2022-08-21T08:31:26;6.20;;;2.05;;
20945;SDS011;10632;51.276;7.116;2022-08-21T08:33:53;4.20;;;1.80;;
20945;SDS011;10632;51.276;7.116;2022-08-21T08:36:30;9.23;;;2.13;;
20945;SDS011;10632;51.276;7.116;2022-08-21T08:39:02;7.82;;;2.22;;
20945;SDS011;10632;51.276;7.116;2022-08-21T08:41:32;8.75;;;2.10;;
20945;SDS011;10632;51.276;7.116;2022-08-21T08:44:02;7.75;;;2.15;;
20945;SDS011;10632;51.276;7.116;2022-08-21T08:46:33;7.90;;;2.58;;
20945;SDS011;10632;51.276;7.116;2022-08-21T08:49:06;6.15;;;2.30;;
20945;SDS011;10632;51.276;7.116;2022-08-21T08:51:40;8.27;;;2.50;;
20945;SDS011;10632;51.276;7.116;2022-08-21T08:54:13;6.85;;;2.30;;
20945;SDS011;10632;51.276;7.116;2022-08-21T08:56:45;5.93;;;1.95;;
20945;SDS011;10632;51.276;7.116;2022-08-21T08:59:18;4.75;;;1.58;;
20945;SDS011;10632;51.276;7.116;2022-08-21T09:01:49;5.57;;;1.65;;
20945;SDS011;10632;51.276;7.116;2022-08-21T09:04:17;8.40;;;2.20;;
20945;SDS011;10632;51.276;7.116;2022-08-21T09:06:57;6.15;;;2.20;;
20945;SDS011;10632;51.276;7.116;2022-08-21T09:09:33;6.90;;;2.35;;
20945;SDS011;10632;51.276;7.116;2022-08-21T09:12:11;10.23;;;1.98;;
20945;SDS011;10632;51.276;7.116;2022-08-21T09:14:50;8.68;;;2.22;;
20945;SDS011;10632;51.276;7.116;2022-08-21T09:17:33;7.90;;;1.90;;
20945;SDS011;10632;51.276;7.116;2022-08-21T09:20:14;7.68;;;1.55;;
20945;SDS011;10632;51.276;7.116;2022-08-21T09:22:53;7.03;;;1.60;;
20945;SDS011;10632;51.276;7.116;2022-08-21T09:25:27;7.30;;;1.77;;
20945;SDS011;10632;51.276;7.116;2022-08-21T09:27:59;8.73;;;1.90;;
20945;SDS011;10632;51.276;7.116;2022-08-21T09:30:29;5.65;;;2.13;;
20945;SDS011;10632;51.276;7.116;2022-08-21T09:32:57;5.53;;;1.92;;
20945;SDS011;10632;51.276;7.116;2022-08-21T09:35:24;6.03;;;1.80;;
20945;SDS011;10632;51.276;7.116;2022-08-21T09:37:52;9.02;;;1.67;;
20945;SDS011;10632;51.276;7.116;2022-08-21T09:40:30;9.32;;;1.52;;
20945;SDS011;10632;51.276;7.116;2022-08-21T09:43:02;10.50;;;1.80;;
20945;SDS011;10632;51.276;7.116;2022-08-21T09:45:33;8.63;;;1.40;;
20945;SDS011;10632;51.276;7.116;2022-08-21T09:48:08;3.92;;;1.30;;
20945;SDS011;10632;51.276;7.116;2022-08-21T09:50:35;6.30;;;1.48;;
20945;SDS011;10632;51.276;7.116;2022-08-21T09:53:03;7.20;;;1.40;;
20945;SDS011;10632;51.276;7.116;2022-08-21T09:55:33;6.15;;;1.50;;
20945;SDS011;10632;51.276;7.116;2022-08-21T09:58:29;6.68;;;1.20;;
20945;SDS011;10632;51.276;7.116;2022-08-21T10:01:02;7.28;;;1.55;;
20945;SDS011;10632;51.276;7.116;2022-08-21T10:03:31;5.70;;;1.40;;
20945;SDS011;10632;51.276;7.116;2022-08-21T10:05:59;7.05;;;1.63;;
20945;SDS011;10632;51.276;7.116;2022-08-21T10:08:31;7.50;;;1.70;;
20945;SDS011;10632;51.276;7.116;2022-08-21T10:11:01;9.60;;;1.40;;
20945;SDS011;10632;51.276;7.116;2022-08-21T10:13:44;5.75;;;1.48;;
20945;SDS011;10632;51.276;7.116;2022-08-21T10:16:20;5.82;;;1.55;;
20945;SDS011;10632;51.276;7.116;2022-08-21T10:19:02;7.88;;;1.38;;
20945;SDS011;10632;51.276;7.116;2022-08-21T10:21:38;5.28;;;1.02;;
20945;SDS011;10632;51.276;7.116;2022-08-21T10:24:13;7.35;;;1.25;;
20945;SDS011;10632;51.276;7.116;2022-08-21T10:26:48;7.18;;;1.50;;
20945;SDS011;10632;51.276;7.116;2022-08-21T10:29:23;4.53;;;1.20;;
20945;SDS011;10632;51.276;7.116;2022-08-21T10:32:07;6.93;;;1.13;;
20945;SDS011;10632;51.276;7.116;2022-08-21T10:34:45;4.70;;;1.10;;
20945;SDS011;10632;51.276;7.116;2022-08-21T10:37:24;5.30;;;1.17;;
20945;SDS011;10632;51.276;7.116;2022-08-21T10:40:06;3.13;;;0.93;;
20945;SDS011;10632;51.276;7.116;2022-08-21T10:42:43;4.45;;;1.17;;
20945;SDS011;10632;51.276;7.116;2022-08-21T10:45:22;4.28;;;1.02;;
20945;SDS011;10632;51.276;7.116;2022-08-21T10:48:02;7.20;;;1.10;;
20945;SDS011;10632;51.276;7.116;2022-08-21T10:50:31;2.10;;;0.85;;
20945;SDS011;10632;51.276;7.116;2022-08-21T10:56:13;3.03;;;0.93;;
20945;SDS011;10632;51.276;7.116;2022-08-21T10:58:45;4.25;;;1.00;;
20945;SDS011;10632;51.276;7.116;2022-08-21T11:01:20;7.00;;;1.10;;
20945;SDS011;10632;51.276;7.116;2022-08-21T11:04:09;5.15;;;0.95;;
20945;SDS011;10632;51.276;7.116;2022-08-21T11:06:39;5.35;;;1.00;;
20945;SDS011;10632;51.276;7.116;2022-08-21T11:09:11;4.63;;;1.00;;
20945;SDS011;10632;51.276;7.116;2022-08-21T11:11:44;6.55;;;1.00;;
20945;SDS011;10632;51.276;7.116;2022-08-21T11:14:19;4.07;;;0.88;;
20945;SDS011;10632;51.276;7.116;2022-08-21T11:16:57;3.58;;;0.90;;
20945;SDS011;10632;51.276;7.116;2022-08-21T11:19:30;5.93;;;1.10;;
20945;SDS011;10632;51.276;7.116;2022-08-21T11:22:06;3.05;;;1.10;;
20945;SDS011;10632;51.276;7.116;2022-08-21T11:24:38;3.92;;;1.08;;
20945;SDS011;10632;51.276;7.116;2022-08-21T11:27:14;5.30;;;0.90;;
20945;SDS011;10632;51.276;7.116;2022-08-21T11:29:48;5.60;;;1.00;;
20945;SDS011;10632;51.276;7.116;2022-08-21T11:35:32;5.88;;;1.27;;
20945;SDS011;10632;51.276;7.116;2022-08-21T11:38:11;4.10;;;1.10;;
20945;SDS011;10632;51.276;7.116;2022-08-21T11:40:50;3.55;;;0.98;;
20945;SDS011;10632;51.276;7.116;2022-08-21T11:43:31;4.07;;;1.10;;
20945;SDS011;10632;51.276;7.116;2022-08-21T11:46:09;3.80;;;0.93;;
20945;SDS011;10632;51.276;7.116;2022-08-21T11:48:46;4.65;;;1.10;;
20945;SDS011;10632;51.276;7.116;2022-08-21T11:51:26;5.32;;;1.20;;
20945;SDS011;10632;51.276;7.116;2022-08-21T11:53:59;3.40;;;0.90;;
20945;SDS011;10632;51.276;7.116;2022-08-21T11:56:32;3.30;;;1.10;;
20945;SDS011;10632;51.276;7.116;2022-08-21T11:59:05;3.85;;;0.90;;
20945;SDS011;10632;51.276;7.116;2022-08-21T12:01:36;3.83;;;1.10;;
20945;SDS011;10632;51.276;7.116;2022-08-21T12:04:08;3.53;;;1.10;;
20945;SDS011;10632;51.276;7.116;2022-08-21T12:06:44;2.00;;;1.00;;
20945;SDS011;10632;51.276;7.116;2022-08-21T12:09:27;2.90;;;1.00;;
20945;SDS011;10632;51.276;7.116;2022-08-21T12:12:01;8.68;;;1.13;;
20945;SDS011;10632;51.276;7.116;2022-08-21T12:14:38;4.40;;;1.10;;
20945;SDS011;10632;51.276;7.116;2022-08-21T12:17:08;4.75;;;1.00;;
20945;SDS011;10632;51.276;7.116;2022-08-21T12:19:44;3.42;;;1.00;;
20945;SDS011;10632;51.276;7.116;2022-08-21T12:22:13;3.45;;;0.90;;
20945;SDS011;10632;51.276;7.116;2022-08-21T12:24:42;3.55;;;1.05;;
20945;SDS011;10632;51.276;7.116;2022-08-21T12:27:21;4.60;;;1.05;;
20945;SDS011;10632;51.276;7.116;2022-08-21T12:29:55;2.72;;;0.90;;
20945;SDS011;10632;51.276;7.116;2022-08-21T12:32:27;4.15;;;1.10;;
20945;SDS011;10632;51.276;7.116;2022-08-21T12:34:56;4.15;;;0.90;;
20945;SDS011;10632;51.276;7.116;2022-08-21T12:37:33;3.00;;;1.10;;
20945;SDS011;10632;51.276;7.116;2022-08-21T12:40:09;2.88;;;0.90;;
20945;SDS011;10632;51.276;7.116;2022-08-21T12:42:54;2.65;;;0.90;;
20945;SDS011;10632;51.276;7.116;2022-08-21T12:45:27;4.60;;;1.00;;
20945;SDS011;10632;51.276;7.116;2022-08-21T12:47:57;2.45;;;1.08;;
20945;SDS011;10632;51.276;7.116;2022-08-21T12:50:32;4.90;;;1.10;;
20945;SDS011;10632;51.276;7.116;2022-08-21T12:53:09;2.78;;;1.08;;
20945;SDS011;10632;51.276;7.116;2022-08-21T12:55:40;7.10;;;1.30;;
20945;SDS011;10632;51.276;7.116;2022-08-21T12:58:16;3.20;;;1.17;;
20945;SDS011;10632;51.276;7.116;2022-08-21T13:00:47;6.25;;;1.30;;
20945;SDS011;10632;51.276;7.116;2022-08-21T13:03:16;10.00;;;2.63;;
20945;SDS011;10632;51.276;7.116;2022-08-21T13:05:43;4.25;;;1.23;;
20945;SDS011;10632;51.276;7.116;2022-08-21T13:08:12;2.85;;;1.10;;
20945;SDS011;10632;51.276;7.116;2022-08-21T13:10:40;5.65;;;1.55;;
20945;SDS011;10632;51.276;7.116;2022-08-21T13:13:08;5.30;;;1.70;;
20945;SDS011;10632;51.276;7.116;2022-08-21T13:15:38;4.43;;;1.00;;
20945;SDS011;10632;51.276;7.116;2022-08-21T13:18:18;2.90;;;1.10;;
20945;SDS011;10632;51.276;7.116;2022-08-21T13:20:48;3.60;;;0.90;;
20945;SDS011;10632;51.276;7.116;2022-08-21T13:23:20;3.63;;;1.15;;
20945;SDS011;10632;51.276;7.116;2022-08-21T13:25:50;3.03;;;1.08;;
20945;SDS011;10632;51.276;7.116;2022-08-21T13:28:17;4.55;;;1.08;;
20945;SDS011;10632;51.276;7.116;2022-08-21T13:30:47;3.42;;;1.00;;
20945;SDS011;10632;51.276;7.116;2022-08-21T13:33:19;4.05;;;1.13;;
20945;SDS011;10632;51.276;7.116;2022-08-21T13:35:49;3.25;;;1.20;;
20945;SDS011;10632;51.276;7.116;2022-08-21T13:38:25;4.85;;;0.85;;
20945;SDS011;10632;51.276;7.116;2022-08-21T13:40:57;1.52;;;0.65;;
20945;SDS011;10632;51.276;7.116;2022-08-21T13:43:28;5.00;;;1.00;;
20945;SDS011;10632;51.276;7.116;2022-08-21T13:45:59;3.30;;;1.08;;
20945;SDS011;10632;51.276;7.116;2022-08-21T13:48:28;2.92;;;0.90;;
20945;SDS011;10632;51.276;7.116;2022-08-21T13:50:58;3.50;;;0.88;;
20945;SDS011;10632;51.276;7.116;2022-08-21T13:53:29;3.55;;;0.80;;
20945;SDS011;10632;51.276;7.116;2022-08-21T13:55:58;2.45;;;0.80;;
20945;SDS011;10632;51.276;7.116;2022-08-21T13:58:27;4.13;;;1.00;;
20945;SDS011;10632;51.276;7.116;2022-08-21T14:00:58;2.90;;;0.85;;
20945;SDS011;10632;51.276;7.116;2022-08-21T14:03:29;3.22;;;0.88;;
20945;SDS011;10632;51.276;7.116;2022-08-21T14:05:59;1.63;;;0.90;;
20945;SDS011;10632;51.276;7.116;2022-08-21T14:08:29;3.53;;;0.90;;
20945;SDS011;10632;51.276;7.116;2022-08-21T14:10:59;4.00;;;0.90;;
20945;SDS011;10632;51.276;7.116;2022-08-21T14:13:36;2.25;;;0.80;;
20945;SDS011;10632;51.276;7.116;2022-08-21T14:16:16;2.80;;;1.13;;
20945;SDS011;10632;51.276;7.116;2022-08-21T14:18:46;4.25;;;1.00;;
20945;SDS011;10632;51.276;7.116;2022-08-21T14:21:23;4.93;;;1.08;;
20945;SDS011;10632;51.276;7.116;2022-08-21T14:24:08;2.83;;;0.80;;
20945;SDS011;10632;51.276;7.116;2022-08-21T14:26:41;4.55;;;1.00;;
20945;SDS011;10632;51.276;7.116;2022-08-21T14:29:15;3.08;;;0.82;;
20945;SDS011;10632;51.276;7.116;2022-08-21T14:31:48;1.60;;;0.82;;
20945;SDS011;10632;51.276;7.116;2022-08-21T14:34:16;2.20;;;1.00;;
20945;SDS011;10632;51.276;7.116;2022-08-21T14:36:44;2.60;;;0.90;;
20945;SDS011;10632;51.276;7.116;2022-08-21T14:39:15;3.90;;;0.88;;
20945;SDS011;10632;51.276;7.116;2022-08-21T14:41:42;3.45;;;0.80;;
20945;SDS011;10632;51.276;7.116;2022-08-21T14:44:11;2.80;;;0.88;;
20945;SDS011;10632;51.276;7.116;2022-08-21T14:46:39;2.90;;;0.90;;
20945;SDS011;10632;51.276;7.116;2022-08-21T14:49:06;1.88;;;0.70;;
20945;SDS011;10632;51.276;7.116;2022-08-21T14:51:33;3.13;;;1.08;;
20945;SDS011;10632;51.276;7.116;2022-08-21T14:54:00;2.83;;;0.70;;
20945;SDS011;10632;51.276;7.116;2022-08-21T14:56:29;2.75;;;0.80;;
20945;SDS011;10632;51.276;7.116;2022-08-21T14:58:56;3.22;;;0.77;;
20945;SDS011;10632;51.276;7.116;2022-08-21T15:01:30;2.17;;;0.77;;
20945;SDS011;10632;51.276;7.116;2022-08-21T15:04:10;2.85;;;0.95;;
20945;SDS011;10632;51.276;7.116;2022-08-21T15:06:38;3.55;;;1.00;;
20945;SDS011;10632;51.276;7.116;2022-08-21T15:09:05;2.28;;;0.70;;